CDT,Max TemperatureF,Mean TemperatureF,Min TemperatureF,Max Dew PointF,MeanDew PointF,Min DewpointF,Max Humidity, Mean Humidity, Min Humidity, Max Sea Level PressureIn, Mean Sea Level PressureIn, Min Sea Level PressureIn, Max VisibilityMiles, Mean VisibilityMiles, Min VisibilityMiles, Max Wind SpeedMPH, Mean Wind SpeedMPH, Max Gust SpeedMPH,PrecipitationIn, CloudCover, Events, WindDirDegrees
2013-3-1,23,12,1,16,8,-2,96,85,74,30.51,30.46,30.38,,,,10,5,12,0.00,,,341
2013-3-2,25,11,-3,20,11,-4,95,88,81,30.46,30.30,30.13,,,,18,9,21,0.00,,,166
2013-3-3,29,20,11,25,18,10,100,88,75,30.14,29.97,29.85,,,,31,15,36,0.00,,,164
2013-3-4,27,26,24,26,24,22,100,94,88,29.96,29.89,29.83,,,,31,16,36,0.07,,,162
2013-3-5,25,21,17,24,19,13,100,89,77,30.48,30.27,29.98,,,,29,18,33,0.06,,,2
2013-3-6,23,20,16,14,13,12,88,81,73,30.52,30.45,30.37,,,,20,8,22,0.00,,,129
2013-3-7,25,20,14,21,17,13,92,87,81,30.37,30.29,30.22,,,,26,17,29,0.00,,,165
2013-3-8,31,20,8,30,18,6,100,91,81,30.32,30.24,30.05,,,,15,4,17,0.24,,,129
2013-3-9,32,29,25,32,28,23,100,96,92,30.02,29.90,29.81,,,,28,13,33,0.35,,,8
2013-3-10,25,17,9,21,14,4,96,85,73,30.25,30.16,30.04,,,,32,20,37,0.00,,,353
2013-3-11,30,18,5,24,11,1,88,78,68,30.15,30.00,29.91,,,,24,10,29,0.00,,,341
2013-3-12,29,20,11,24,17,10,92,83,74,30.40,30.18,29.93,,,,29,18,33,0.01,,,345
2013-3-13,25,12,-2,21,10,-3,95,86,77,30.49,30.37,30.14,,,,18,9,21,0.00,,,182
2013-3-14,38,26,13,29,24,13,100,86,72,30.16,30.11,30.04,,,,20,5,24,0.00,,,126
2013-3-15,28,21,13,24,20,12,100,91,81,30.13,30.03,29.91,,,,24,15,29,0.03,,,13
2013-3-16,12,6,0,10,2,-4,88,82,73,30.42,30.32,30.14,,,,23,16,,0.00,,,350
2013-3-17,29,15,1,27,9,-3,95,86,76,30.39,30.06,29.65,,,,32,18,38,0.16,,,158
2013-3-18,35,21,6,32,10,0,100,87,73,30.10,29.81,29.49,,,,38,27,48,0.00,,,315
2013-3-19,16,7,-2,8,1,-6,80,67,53,30.45,30.29,30.12,,,,28,16,31,0.00,,,335
2013-3-20,17,8,-2,6,0,-7,87,74,61,30.48,30.40,30.30,,,,23,12,29,0.00,,,335
2013-3-21,18,4,-10,8,-1,-12,92,77,61,30.27,30.22,30.17,,,,7,2,8,0.00,,,20
2013-3-22,22,7,-8,14,3,-12,86,72,57,30.23,30.20,30.17,,,,7,2,8,0.00,,,100
2013-3-23,26,20,13,19,14,10,92,77,62,30.28,30.25,30.22,,,,17,8,20,0.00,,,345
2013-3-24,29,21,12,22,16,10,92,81,69,30.27,30.22,30.18,,,,22,15,25,0.01,,,349
2013-3-25,27,20,13,19,17,10,92,80,68,30.43,30.35,30.27,,,,22,16,25,T,,,344
2013-3-26,26,14,2,17,10,0,92,80,68,30.45,30.41,30.37,,,,10,4,13,0.00,,,4
2013-3-27,32,17,1,27,15,0,100,89,78,30.39,30.37,30.35,,,,15,7,17,0.00,,,162
2013-3-28,35,26,17,31,25,18,100,91,82,30.34,30.29,30.26,,,,12,6,14,0.00,,,172
2013-3-29,40,31,22,34,29,21,100,90,79,30.27,30.16,29.95,,,,17,5,21,0.03,,,169
2013-3-30,39,36,32,34,33,29,100,91,82,30.01,29.98,29.94,,,,18,11,23,0.01,,,335
2013-3-31,35,26,17,30,22,13,85,77,68,30.30,30.10,29.93,,,,30,19,35,0.00,,,350